• Join FlightAware (Why Join?)
  • Login
  • US Flag 
06:26PM EDT


 

Airport Tracker/Info


-or-


 

Live Flight TrackerFlight Track Log ✈ RPA3247 ✈ 26-Apr-2013 ✈ KALB - KDCA

Flight Track Log - Related Links

Times and Time Zones

All times are in EDT time to prevent confusion due to time zone crossing. See the RPA3247 flight status page for this flight to view local times or setup timezone preferences in your user account.

Time Position Orientation Groundspeed Altitude Reporting Facility
EDT Latitude Longitude Course Direction KTS MPH feet Rate Location/Type
05:38PM 42.7503 -73.8283 120° Southeast 146 168 1,400  Level Boston Center
05:38PM 42.7500 -73.8539 269° West 150 173 2,100 2,100 Climbing Boston Center
05:40PM 42.7867 -73.9169 308° West 223 257 4,600 2,760 Climbing Boston Center
05:40PM 42.8300 -73.9689 319° Northwest 242 278 7,400 3,360 Climbing Boston Center
05:41PM 42.4599 -74.0584 171° South  Level Estimated
05:41PM 42.8600 -74.0517 296° West 240 276 10,900  Level Boston Center
05:42PM 42.3876 -74.1221 170° South  Level Estimated
05:42PM 42.8544 -74.1450 265° West 251 289 13,800  Level Boston Center
05:43PM 42.3445 -74.0209 120° Southeast  Level FlightAware Approximate
05:43PM 42.8175 -74.2431 243° Southwest 273 314 16,900  Level Boston Center
05:44PM 42.7367 -74.2153 166° South 259 298 18,800 2,160 Climbing Boston Center
05:45PM 42.6356 -74.1531 156° South 326 375 21,300 2,220 Climbing Boston Center
05:46PM 42.5425 -74.0942 155° Southeast 338 389 23,300 2,040 Climbing Boston Center
05:47PM 42.4456 -74.0297 154° Southeast 368 423 25,400 1,980 Climbing Boston Center
05:48PM 42.3422 -73.9681 156° South 390 449 27,300 1,260 Climbing Boston Center
05:49PM 42.2617 -73.9128 153° Southeast 401 461 28,000 300 Climbing Boston Center
05:50PM 42.1375 -73.8372 156° South 401 461 28,000  Level Boston Center
05:51PM 42.0569 -73.7850 154° Southeast 401 461 28,000  Level Boston Center
05:52PM 41.9383 -73.7742 176° South 393 452 28,000  Level Boston Center
05:55PM 41.7264 -73.8839 201° Southwest 369 425 28,000  Level New York Center
05:56PM 41.6336 -73.9381 204° Southwest 375 432 28,000  Level New York Center
05:57PM 41.5300 -73.9967 203° Southwest 375 432 28,000  Level New York Center
05:58PM 41.4347 -74.0503 203° Southwest 375 432 28,000  Level New York Center
05:59PM 41.3353 -74.1033 202° Southwest 380 437 28,000  Level New York Center
06:00PM 41.2400 -74.1567 203° Southwest 380 437 28,000  Level New York Center
06:01PM 41.1514 -74.1989 200° South 380 437 28,000  Level New York Center
06:02PM 41.0561 -74.2547 204° Southwest 380 437 28,000  Level New York Center
06:03PM 40.9586 -74.3072 202° Southwest 380 437 28,000  Level New York Center
06:04PM 40.8614 -74.3600 202° Southwest 380 437 28,000  Level New York Center
06:05PM 40.7758 -74.4267 211° Southwest 375 432 28,000  Level New York Center
06:06PM 40.7144 -74.5275 231° Southwest 366 421 28,000  Level New York Center
06:07PM 40.6528 -74.6278 231° Southwest 360 414 28,000  Level New York Center
06:08PM 40.5889 -74.7281 230° Southwest 360 414 28,000  Level New York Center
06:09PM 40.5233 -74.8253 228° Southwest 360 414 28,000  Level New York Center
06:10PM 40.4550 -74.9250 228° Southwest 366 421 28,000  Level New York Center
06:11PM 40.3872 -75.0192 227° Southwest 366 421 28,000 -540 Level New York Center
06:12PM 40.3211 -75.1131 227° Southwest 366 421 27,000 -1,500 Descending New York Center
06:13PM 40.2553 -75.2067 227° Southwest 361 415 25,100 -1,860 Descending New York Center
06:14PM 40.1892 -75.2978 226° Southwest 356 410 23,300 -1,560 Descending New York Center
06:15PM 40.1253 -75.3858 227° Southwest 351 404 22,000 -660 Descending New York Center
06:16PM 40.0636 -75.4739 228° Southwest 345 397 22,000  Level New York Center
06:17PM 39.9994 -75.5617 226° Southwest 339 390 22,000  Level New York Center
06:18PM 39.9356 -75.6467 226° Southwest 334 384 22,000  Level New York Center
06:19PM 39.8794 -75.7403 232° Southwest 334 384 22,000  Level New York Center
06:20PM 39.8194 -75.8306 229° Southwest 334 384 22,000 -300 Level New York Center
06:21PM 39.7633 -75.9236 232° Southwest 329 379 21,400 -1,200 Descending New York Center
06:22PM 39.7072 -76.0114 230° Southwest 329 379 19,700 -1,740 Descending New York Center
06:23PM 39.6558 -76.0911 230° Southwest 310 357 18,000 -1,620 Descending New York Center
06:24PM 39.6039 -76.1789 232° Southwest 310 357 16,500 -1,560 Descending New York Center
06:25PM 39.5522 -76.2583 230° Southwest 304 350 14,900 -1,680 Descending New York Center
06:25PM 39.5167 -76.3167 232° Southwest 286 329 13,700 -1,620 Descending Potomac TRACON
06:26PM 39.4667 -76.4000 232° Southwest 281 323 12,200 -900 Descending Potomac TRACON
06:27PM 39.4000 -76.4667 218° Southwest 286 329 12,000 -120 Descending Potomac TRACON
06:28PM 39.3333 -76.5167 210° Southwest 286 329 12,000 -540 Level Potomac TRACON
06:29PM 39.2667 -76.5833 218° Southwest 285 328 11,000 -1,020 Descending Potomac TRACON
06:30PM 39.2000 -76.6333 210° Southwest 282 325 10,100 -540 Descending Potomac TRACON
06:31PM 39.1333 -76.7000 218° Southwest 278 320 10,000 -60 Descending Potomac TRACON
06:32PM 39.0833 -76.7667 226° Southwest 279 321 10,000 -900 Level Potomac TRACON
06:33PM 39.0333 -76.8333 226° Southwest 275 316 8,300 -1,800 Descending Potomac TRACON
06:34PM 38.9667 -76.9000 218° Southwest 268 308 6,600 -1,200 Descending Potomac TRACON
06:35PM 38.9167 -76.9500 218° Southwest 260 299 6,000 -660 Descending Potomac TRACON
06:36PM 38.8333 -76.9500 180° South 269 310 5,300 -960 Descending Potomac TRACON
06:37PM 38.7667 -76.9500 180° South 243 280 4,100 -1,140 Descending Potomac TRACON
06:38PM 38.7167 -76.9667 195° South 224 258 3,100 -1,020 Descending Potomac TRACON